Time;durP1;ratioP1;P1;durP2;ratioP2;P2;SDS_P1;SDS_P2;PMS_P1;PMS_P2;Temp;Humidity;BMP_temperature;BMP_pressure;BME280_temperature;BME280_humidity;BME280_pressure;Samples;Min_cycle;Max_cycle;Signal;HPM_P1;HPM_P2
2021/06/15 00:02:29;;;;;;;9.18;4.97;;;;;;;10.80;71.64;99421.13;4049133;86;21001;-77
2021/06/15 00:08:30;;;;;;;13.20;5.70;;;;;;;10.65;72.54;99430.23;4049918;86;21042;-77
2021/06/15 00:14:32;;;;;;;9.95;5.90;;;;;;;10.88;73.01;99426.91;4046978;86;21088;-77
2021/06/15 00:20:34;;;;;;;14.68;6.78;;;;;;;10.95;72.86;99422.92;4033886;86;21081;-77
2021/06/15 00:26:37;;;;;;;14.90;6.30;;;;;;;11.03;73.02;99418.34;4045296;86;21052;-77
2021/06/15 00:32:48;;;;;;;13.38;6.20;;;;;;;10.99;72.75;99415.54;4033923;86;21061;-77
2021/06/15 00:38:58;;;;;;;12.20;6.90;;;;;;;11.15;73.31;99422.84;4044809;86;21615;-77
2021/06/15 00:45:18;;;;;;;13.38;6.12;;;;;;;11.28;73.44;99426.37;4047406;86;21107;-78
2021/06/15 00:51:25;;;;;;;12.58;6.40;;;;;;;11.15;72.93;99421.47;4043891;86;21043;-77
2021/06/15 00:57:33;;;;;;;11.00;5.85;;;;;;;10.87;73.14;99411.64;4047955;86;21051;-77
2021/06/15 01:03:36;;;;;;;9.08;5.28;;;;;;;10.69;73.35;99411.13;4042463;86;21055;-77
2021/06/15 01:10:20;;;;;;;13.43;5.80;;;;;;;10.47;73.15;99410.55;4045148;86;21078;-77
2021/06/15 01:16:55;;;;;;;13.48;6.40;;;;;;;10.29;73.62;99405.34;3925584;88;22290;-77
2021/06/15 01:23:11;;;;;;;11.83;6.50;;;;;;;10.11;73.80;99391.31;3945324;88;21074;-76
2021/06/15 01:29:35;;;;;;;14.28;5.92;;;;;;;10.03;74.51;99389.56;3947606;89;21129;-77
2021/06/15 01:35:47;;;;;;;9.05;6.75;;;;;;;10.31;75.06;99400.27;4038091;86;21048;-77
2021/06/15 01:42:22;;;;;;;12.73;6.75;;;;;;;10.45;74.64;99377.27;4042656;86;21067;-77
2021/06/15 01:48:58;;;;;;;15.40;6.97;;;;;;;10.23;74.53;99378.84;4042846;86;21516;-77
2021/06/15 01:55:10;;;;;;;12.47;7.53;;;;;;;9.99;74.45;99380.48;4040133;86;21115;-77
2021/06/15 02:01:34;;;;;;;11.63;7.60;;;;;;;9.83;74.79;99378.43;4042033;86;21063;-76
2021/06/15 02:07:56;;;;;;;15.03;6.50;;;;;;;9.71;74.92;99380.52;4042209;86;21035;-77
2021/06/15 02:14:07;;;;;;;10.25;6.17;;;;;;;9.65;75.62;99378.63;4048824;86;21631;-76
2021/06/15 02:20:36;;;;;;;12.10;6.60;;;;;;;9.69;75.65;99375.98;4030191;86;21056;-77
2021/06/15 02:26:48;;;;;;;;;;;;;;;9.53;75.42;99369.20;4042153;86;21071;-77
2021/06/15 02:32:59;;;;;;;10.13;6.30;;;;;;;9.58;77.14;99368.33;4039177;86;20462;-77
2021/06/15 02:39:09;;;;;;;11.05;6.83;;;;;;;9.65;76.11;99369.06;4034847;86;21579;-78
2021/06/15 02:45:33;;;;;;;11.80;6.47;;;;;;;9.55;75.79;99368.28;4048864;86;21070;-77
2021/06/15 02:51:57;;;;;;;10.80;6.47;;;;;;;9.52;76.53;99377.97;4049022;86;21533;-77
2021/06/15 02:58:03;;;;;;;11.38;6.30;;;;;;;9.46;76.43;99376.68;4042118;86;21025;-76
2021/06/15 03:04:08;;;;;;;12.03;7.03;;;;;;;9.47;76.25;99368.69;4033861;86;21020;-77
2021/06/15 03:10:25;;;;;;;8.98;5.65;;;;;;;9.58;76.51;99368.93;4049715;86;21027;-77
2021/06/15 03:16:32;;;;;;;12.82;7.25;;;;;;;9.56;76.78;99372.59;4048325;86;21071;-77
2021/06/15 03:23:27;;;;;;;10.20;6.75;;;;;;;9.55;77.03;99371.02;4036509;86;21069;-76
2021/06/15 03:29:40;;;;;;;9.00;6.30;;;;;;;9.45;77.06;99375.11;4031205;86;21066;-77
2021/06/15 03:35:59;;;;;;;8.98;6.28;;;;;;;9.73;77.46;99374.09;4037481;86;21090;-75
2021/06/15 03:42:23;;;;;;;17.12;10.72;;;;;;;9.80;77.10;99369.58;4043504;86;21606;-76
2021/06/15 03:48:41;;;;;;;26.15;15.85;;;;;;;9.98;77.40;99370.70;4010423;86;21031;-76
2021/06/15 03:54:59;;;;;;;15.15;8.08;;;;;;;10.19;77.52;99377.99;4043357;86;21020;-77
2021/06/15 04:01:13;;;;;;;11.70;7.83;;;;;;;10.32;77.36;99386.23;3980897;82;7813270;-77
2021/06/15 04:07:23;;;;;;;14.10;8.13;;;;;;;10.48;77.33;99395.69;4183877;83;21003;-77
2021/06/15 04:13:43;;;;;;;17.37;8.00;;;;;;;10.62;77.10;99390.46;4161520;83;21124;-77
2021/06/15 04:19:59;;;;;;;11.97;6.95;;;;;;;10.70;77.30;99390.80;4160590;83;21418;-78
2021/06/15 04:26:13;;;;;;;17.00;8.60;;;;;;;10.85;77.26;99399.48;4155898;83;21038;-78
2021/06/15 04:32:35;;;;;;;15.45;9.08;;;;;;;10.99;77.29;99396.97;4168413;84;21034;-78
2021/06/15 04:39:04;;;;;;;14.03;8.35;;;;;;;11.17;77.36;99392.53;4169031;84;21058;-78
2021/06/15 04:45:22;;;;;;;14.93;8.20;;;;;;;11.34;77.53;99377.52;4170236;84;21324;-77
2021/06/15 04:51:31;;;;;;;13.45;7.55;;;;;;;11.53;77.37;99385.02;4147714;84;21149;-78
2021/06/15 04:57:46;;;;;;;9.85;7.00;;;;;;;11.71;77.19;99386.09;4148497;84;21079;-76
2021/06/15 05:04:03;;;;;;;15.03;7.28;;;;;;;11.88;77.25;99384.72;4161190;83;21361;-76
2021/06/15 05:10:06;;;;;;;18.57;6.72;;;;;;;12.08;77.23;99388.86;4165220;83;20998;-77
2021/06/15 05:16:11;;;;;;;10.88;6.40;;;;;;;12.27;77.23;99398.30;4154647;83;21050;-77
2021/06/15 05:22:34;;;;;;;14.25;6.47;;;;;;;12.49;77.31;99396.77;4187383;82;21557;-76
2021/06/15 05:28:36;;;;;;;13.72;6.17;;;;;;;12.79;77.39;99396.65;4155076;83;21642;-77
2021/06/15 05:34:38;;;;;;;7.47;5.53;;;;;;;13.12;77.09;99406.17;4153696;83;21518;-77
2021/06/15 05:40:44;;;;;;;12.98;8.13;;;;;;;13.40;76.84;99411.86;4150900;82;21019;-78
2021/06/15 05:46:43;;;;;;;15.60;8.23;;;;;;;13.64;76.27;99407.69;4148756;83;21077;-76
2021/06/15 05:52:45;;;;;;;11.05;8.03;;;;;;;13.90;76.09;99424.72;4155879;83;21055;-77
2021/06/15 05:58:46;;;;;;;22.20;9.73;;;;;;;14.14;75.74;99428.75;4159050;83;21058;-77
2021/06/15 06:05:04;;;;;;;17.00;8.53;;;;;;;14.35;75.51;99430.21;4162011;83;21573;-77
2021/06/15 06:10:53;;;;;;;16.80;6.70;;;;;;;14.54;75.31;99436.75;4164039;84;21082;-77
2021/06/15 06:16:55;;;;;;;20.82;8.93;;;;;;;14.73;74.91;99441.12;4162419;84;21572;-77
2021/06/15 06:22:59;;;;;;;24.67;10.75;;;;;;;14.96;74.80;99449.80;4144064;84;21635;-77
2021/06/15 06:29:00;;;;;;;22.17;9.55;;;;;;;15.20;74.32;99449.03;4134954;84;21618;-76
2021/06/15 06:35:03;;;;;;;18.52;9.68;;;;;;;15.40;74.05;99447.46;4144194;84;21036;-77
2021/06/15 06:41:05;;;;;;;19.23;10.63;;;;;;;15.59;73.49;99439.56;4150157;84;21042;-77
2021/06/15 06:47:06;;;;;;;22.65;10.53;;;;;;;15.82;73.18;99443.23;4150769;84;21567;-78
2021/06/15 06:53:07;;;;;;;20.52;10.98;;;;;;;16.15;72.96;99446.08;4150392;84;21199;-77
2021/06/15 06:59:09;;;;;;;28.52;12.37;;;;;;;16.63;72.35;99445.06;4147873;84;21049;-78
2021/06/15 07:05:11;;;;;;;26.35;11.43;;;;;;;17.26;72.00;99440.28;4147542;84;21566;-78
2021/06/15 07:11:13;;;;;;;25.30;8.75;;;;;;;18.18;71.84;99429.83;4151802;84;21064;-78
2021/06/15 07:17:14;;;;;;;17.25;8.95;;;;;;;19.09;70.77;99433.30;4151093;84;21603;-78
2021/06/15 07:23:16;;;;;;;25.45;8.58;;;;;;;19.94;69.70;99426.42;4126528;84;22259;-78
2021/06/15 07:29:17;;;;;;;19.17;8.23;;;;;;;20.31;66.19;99425.30;4164696;84;21675;-78
2021/06/15 07:35:19;;;;;;;21.57;7.67;;;;;;;20.83;66.45;99431.06;4144669;84;21621;-79
2021/06/15 07:41:21;;;;;;;20.10;7.72;;;;;;;21.17;64.96;99424.50;4161742;84;21093;-78
2021/06/15 07:47:22;;;;;;;20.05;7.15;;;;;;;21.66;64.32;99420.44;4161688;84;21097;-77
2021/06/15 07:53:24;;;;;;;13.53;6.60;;;;;;;21.96;63.10;99407.31;4162371;84;21558;-78
2021/06/15 07:59:25;;;;;;;8.65;4.47;;;;;;;22.00;62.17;99409.41;4167882;84;21426;-79
2021/06/15 08:05:27;;;;;;;9.48;4.70;;;;;;;;;;4164635;84;21977;-78
2021/06/15 08:11:28;;;;;;;13.62;4.80;;;;;;;22.15;59.40;99401.58;4165279;84;21094;-77
2021/06/15 08:17:30;;;;;;;7.22;3.65;;;;;;;22.17;59.12;99398.34;4165335;84;21491;-78
2021/06/15 08:23:31;;;;;;;8.10;3.40;;;;;;;21.96;57.35;99398.95;4145549;83;21061;-79
2021/06/15 08:29:32;;;;;;;5.45;2.08;;;;;;;22.00;56.58;99404.62;4179794;83;21051;-77
2021/06/15 08:35:35;;;;;;;4.28;2.00;;;;;;;22.19;55.48;99401.48;4182133;83;21044;-79
2021/06/15 08:41:39;;;;;;;4.80;1.75;;;;;;;22.03;52.98;99393.19;4181635;83;21562;-79
2021/06/15 08:47:44;;;;;;;6.12;2.15;;;;;;;22.14;53.34;99396.45;4181313;83;21034;-80
2021/06/15 08:53:52;;;;;;;3.95;2.10;;;;;;;21.85;52.79;99397.09;4183522;83;21041;-82
2021/06/15 09:00:00;;;;;;;4.83;2.27;;;;;;;21.82;51.53;99387.59;4183338;83;21506;-78
2021/06/15 09:06:00;;;;;;;;;;;;;;;21.98;52.29;99383.97;4178536;83;21104;-79
2021/06/15 09:12:03;;;;;;;6.87;2.70;;;;;;;22.01;50.60;99390.05;4176924;83;20131;-79
2021/06/15 09:18:05;;;;;;;5.00;2.35;;;;;;;22.13;47.01;99387.92;4187139;83;21203;-79
2021/06/15 09:24:27;;;;;;;4.17;2.02;;;;;;;22.20;49.42;99387.70;4176142;83;21049;-79
2021/06/15 09:30:30;;;;;;;5.50;2.70;;;;;;;22.58;49.26;99394.15;4161156;84;21070;-80
2021/06/15 09:36:35;;;;;;;5.78;2.27;;;;;;;22.88;49.03;99386.62;4164243;84;21106;-78
2021/06/15 09:43:09;;;;;;;6.42;2.17;;;;;;;23.18;48.84;99379.80;4165457;84;21586;-79
2021/06/15 09:49:13;;;;;;;4.28;1.70;;;;;;;23.28;47.61;99380.70;4167344;84;21046;-80
2021/06/15 09:55:17;;;;;;;4.08;2.12;;;;;;;23.43;46.70;99363.61;4167337;83;21518;-80
2021/06/15 10:01:40;;;;;;;4.55;2.17;;;;;;;23.39;45.16;99353.19;4144061;84;21574;-79
2021/06/15 10:07:41;;;;;;;5.92;2.15;;;;;;;23.40;45.29;99351.94;4165782;84;21062;-80
2021/06/15 10:13:43;;;;;;;2.83;1.70;;;;;;;23.77;45.06;99344.64;4167625;84;21037;-79
2021/06/15 10:19:44;;;;;;;6.35;2.92;;;;;;;24.11;44.83;99346.77;4166510;83;21112;-77
2021/06/15 10:25:50;;;;;;;3.05;1.85;;;;;;;24.42;44.64;99342.55;4162413;84;21574;-78
2021/06/15 10:31:53;;;;;;;4.10;1.90;;;;;;;24.55;38.68;99330.66;4161626;83;20984;-82
2021/06/15 10:37:55;;;;;;;5.97;2.00;;;;;;;24.39;38.06;99333.69;4161397;84;21088;-79
2021/06/15 10:44:00;;;;;;;2.62;1.62;;;;;;;23.78;38.46;99323.83;4172281;84;21029;-79
2021/06/15 10:50:02;;;;;;;10.43;2.10;;;;;;;23.98;40.81;99324.30;4166027;84;21084;-78
2021/06/15 10:56:10;;;;;;;5.47;2.00;;;;;;;24.43;40.71;99319.71;4161300;84;21712;-79
2021/06/15 11:02:14;;;;;;;4.28;1.92;;;;;;;24.96;40.76;99314.00;4167671;84;21006;-80
2021/06/15 11:08:30;;;;;;;3.65;2.02;;;;;;;25.46;40.77;99293.22;4160227;84;21054;-78
2021/06/15 11:14:31;;;;;;;5.00;2.10;;;;;;;25.66;39.06;99307.53;4169433;84;21018;-79
2021/06/15 11:20:41;;;;;;;6.03;2.40;;;;;;;25.47;34.99;99302.39;4165619;84;21113;-79
2021/06/15 11:26:43;;;;;;;4.92;2.12;;;;;;;25.51;38.49;99288.36;4162820;84;21076;-79
2021/06/15 11:32:57;;;;;;;5.75;2.02;;;;;;;26.10;38.50;99277.07;4169389;83;21042;-79
2021/06/15 11:39:31;;;;;;;4.08;2.05;;;;;;;26.89;38.75;99276.38;4145159;84;21034;-79
2021/06/15 11:45:37;;;;;;;2.90;1.85;;;;;;;27.45;38.63;99267.84;4164062;84;21023;-80
2021/06/15 11:51:39;;;;;;;3.27;2.10;;;;;;;27.82;38.20;99260.46;4162839;84;21033;-81
2021/06/15 11:57:42;;;;;;;3.72;1.60;;;;;;;27.92;38.09;99265.56;4166790;84;21060;-80
2021/06/15 12:03:49;;;;;;;2.10;1.70;;;;;;;27.90;37.83;99259.63;4159357;84;22489;-79
2021/06/15 12:10:15;;;;;;;3.60;1.85;;;;;;;27.78;37.33;99255.05;4163364;84;21030;-80
2021/06/15 12:16:26;;;;;;;5.20;2.02;;;;;;;27.55;36.93;99253.08;4164979;84;21050;-79
2021/06/15 12:22:28;;;;;;;3.67;1.98;;;;;;;27.21;36.54;99248.05;4170148;84;21017;-77
2021/06/15 12:28:30;;;;;;;3.52;1.77;;;;;;;26.72;36.13;99254.19;4186290;83;21038;-83
2021/06/15 12:34:32;;;;;;;4.92;1.80;;;;;;;26.19;36.44;99257.39;4194395;83;21533;-79
2021/06/15 12:40:33;;;;;;;3.27;2.12;;;;;;;26.01;36.29;99248.41;4186020;83;21102;-79
2021/06/15 12:46:38;;;;;;;4.03;1.72;;;;;;;25.85;36.02;99244.56;4186271;83;21037;-79
2021/06/15 12:52:42;;;;;;;4.78;2.10;;;;;;;25.97;37.66;99247.00;4194029;83;21041;-79
2021/06/15 12:58:46;;;;;;;4.60;1.72;;;;;;;25.90;37.95;99236.13;4186613;83;21053;-80
2021/06/15 13:05:16;;;;;;;3.85;2.02;;;;;;;25.94;37.20;99228.31;4186994;83;21033;-79
2021/06/15 13:11:24;;;;;;;4.60;1.90;;;;;;;25.66;36.91;99227.62;4190722;83;21391;-79
2021/06/15 13:17:28;;;;;;;5.15;1.90;;;;;;;25.33;36.48;99216.12;4197531;83;21044;-78
2021/06/15 13:23:29;;;;;;;6.35;1.90;;;;;;;25.05;36.40;99215.98;4169355;83;21113;-77
2021/06/15 13:29:31;;;;;;;4.60;1.77;;;;;;;25.04;36.29;99208.83;4164755;83;21534;-78
2021/06/15 13:35:41;;;;;;;4.90;1.70;;;;;;;25.00;36.21;99201.19;4166298;84;21113;-79
2021/06/15 13:41:45;;;;;;;5.12;1.77;;;;;;;25.12;36.01;99191.88;4165204;84;21114;-77
2021/06/15 13:47:47;;;;;;;2.30;1.30;;;;;;;25.21;36.57;99180.66;4164203;84;21012;-78
2021/06/15 13:53:49;;;;;;;3.30;1.82;;;;;;;25.21;37.76;99180.04;4163585;83;21522;-81
2021/06/15 13:59:51;;;;;;;3.52;1.85;;;;;;;25.13;37.12;99172.41;4160990;84;21045;-78
2021/06/15 14:05:54;;;;;;;4.60;1.60;;;;;;;25.24;36.28;99168.50;4164353;84;21058;-79
2021/06/15 14:11:56;;;;;;;4.40;1.90;;;;;;;25.28;35.75;99166.31;4164458;84;21495;-80
2021/06/15 14:17:58;;;;;;;2.72;1.50;;;;;;;25.30;35.44;99169.42;4168447;84;21027;-79
2021/06/15 14:23:59;;;;;;;3.15;1.25;;;;;;;25.20;35.60;99159.50;4146496;84;21037;-77
2021/06/15 14:30:01;;;;;;;3.30;1.50;;;;;;;24.74;34.55;99158.74;4149448;84;21116;-78
2021/06/15 14:36:04;;;;;;;4.45;2.00;;;;;;;24.68;34.81;99144.43;4152681;84;21059;-78
2021/06/15 14:42:08;;;;;;;5.40;2.10;;;;;;;24.68;35.12;99148.02;4147966;84;21535;-78
2021/06/15 14:48:11;;;;;;;5.97;1.72;;;;;;;24.70;35.15;99148.30;4133617;84;21067;-78
2021/06/15 14:54:16;;;;;;;4.97;2.10;;;;;;;24.92;35.22;99153.13;4147375;84;21037;-78
2021/06/15 15:00:22;;;;;;;2.95;1.87;;;;;;;24.92;35.22;99153.13;4149365;84;21491;-79
2021/06/15 15:06:24;;;;;;;6.00;2.75;;;;;;;24.72;36.86;99143.02;4140911;84;21097;-78
2021/06/15 15:12:26;;;;;;;5.90;2.00;;;;;;;24.91;36.66;99136.19;4147188;84;21033;-77
2021/06/15 15:18:32;;;;;;;4.40;2.00;;;;;;;24.77;36.57;99104.62;4148422;84;21046;-77
2021/06/15 15:24:30;;;;;;;5.60;2.30;;;;;;;24.90;36.28;99126.21;4142803;84;21034;-78
2021/06/15 15:30:37;;;;;;;4.58;1.92;;;;;;;24.69;36.39;99127.16;4160864;84;21057;-79
2021/06/15 15:37:48;;;;;;;;;;;;;;;;;;;;;
2021/06/15 15:43:36;;;;;;;;;;;;;;;24.38;37.28;99115.30;4161035;84;21042;-79
2021/06/15 15:49:41;;;;;;;5.87;2.33;;;;;;;24.19;37.65;99117.30;4167368;84;20112;-79
2021/06/15 15:55:44;;;;;;;4.20;1.92;;;;;;;24.04;38.14;99116.95;4167069;84;21014;-80
2021/06/15 16:01:46;;;;;;;4.83;2.37;;;;;;;23.92;38.37;99124.80;4169410;84;20959;-79
2021/06/15 16:07:48;;;;;;;5.55;2.45;;;;;;;23.90;38.35;99123.86;4167463;84;21024;-79
2021/06/15 16:13:49;;;;;;;4.85;2.33;;;;;;;23.84;38.55;99120.73;4164079;84;21062;-79
2021/06/15 16:19:51;;;;;;;6.15;2.70;;;;;;;23.84;38.62;99108.15;4165319;84;21586;-79
2021/06/15 16:25:52;;;;;;;4.28;2.60;;;;;;;23.88;39.23;99108.80;4170758;83;21038;-79
2021/06/15 16:31:53;;;;;;;7.12;3.27;;;;;;;23.84;39.54;99099.77;4165585;83;21058;-79
2021/06/15 16:37:55;;;;;;;4.12;2.27;;;;;;;23.72;40.11;99100.66;4166815;83;22479;-79
2021/06/15 16:43:57;;;;;;;5.15;2.87;;;;;;;23.66;39.89;99109.50;4172151;83;21019;-79
2021/06/15 16:49:58;;;;;;;5.55;2.87;;;;;;;23.58;40.05;99106.20;4173985;83;21014;-79
2021/06/15 16:56:00;;;;;;;6.42;3.08;;;;;;;23.44;40.74;99106.77;4168815;83;21035;-79
2021/06/15 17:02:02;;;;;;;6.42;3.37;;;;;;;23.20;40.86;99114.83;4170085;83;20994;-79
2021/06/15 17:08:04;;;;;;;5.62;3.45;;;;;;;22.99;41.38;99107.88;4164953;83;21067;-78
2021/06/15 17:14:06;;;;;;;8.95;3.95;;;;;;;22.85;41.17;99104.97;4164202;83;21111;-78
2021/06/15 17:20:09;;;;;;;5.12;3.17;;;;;;;22.75;41.55;99108.16;4160487;83;21031;-78
2021/06/15 17:26:10;;;;;;;5.30;3.37;;;;;;;22.65;41.87;99105.91;4164083;83;21812;-78
2021/06/15 17:32:11;;;;;;;6.72;2.95;;;;;;;22.56;42.07;99113.42;4184886;83;21057;-79
2021/06/15 17:38:13;;;;;;;7.92;3.25;;;;;;;22.46;42.38;99110.34;4180214;83;21042;-78
2021/06/15 17:44:14;;;;;;;4.62;2.80;;;;;;;22.42;42.62;99113.28;4179438;83;21007;-78
2021/06/15 17:50:16;;;;;;;6.25;3.20;;;;;;;22.38;42.57;99111.22;4170456;83;21084;-78
2021/06/15 17:56:17;;;;;;;5.92;2.75;;;;;;;22.34;42.76;99111.18;4175242;83;21012;-78
2021/06/15 18:02:21;;;;;;;5.87;3.10;;;;;;;22.22;43.07;99101.64;4175730;83;21422;-78
2021/06/15 18:08:25;;;;;;;6.05;3.00;;;;;;;22.11;43.12;99104.61;4174905;83;21459;-77
2021/06/15 18:14:25;;;;;;;6.47;3.37;;;;;;;21.98;43.38;99104.63;4174498;83;21450;-78
2021/06/15 18:20:28;;;;;;;5.35;3.02;;;;;;;21.85;43.61;99115.64;4181380;83;20999;-78
2021/06/15 18:26:29;;;;;;;7.25;3.58;;;;;;;21.66;44.01;99118.77;4175246;83;21019;-78
2021/06/15 18:32:31;;;;;;;9.00;3.62;;;;;;;21.40;44.62;99119.39;4154891;84;21887;-78
2021/06/15 18:38:33;;;;;;;9.60;3.85;;;;;;;21.23;45.18;99131.84;4150892;84;21076;-78
2021/06/15 18:44:34;;;;;;;34.45;16.25;;;;;;;21.05;45.87;99129.38;4145643;84;20973;-78
2021/06/15 18:50:38;;;;;;;39.23;20.55;;;;;;;20.73;46.51;99128.89;4149306;84;20998;-78
2021/06/15 18:56:42;;;;;;;39.33;20.57;;;;;;;20.45;47.43;99135.81;4145112;84;21549;-78
2021/06/15 19:02:45;;;;;;;32.35;16.67;;;;;;;20.25;48.29;99140.72;4141527;84;21125;-78
2021/06/15 19:08:46;;;;;;;25.15;12.95;;;;;;;20.00;49.13;99144.85;4144344;84;21038;-77
2021/06/15 19:14:48;;;;;;;22.17;12.10;;;;;;;19.71;50.16;99150.92;4143272;84;21034;-78
2021/06/15 19:20:49;;;;;;;20.50;9.63;;;;;;;19.38;51.22;99158.20;4146326;84;21044;-78
2021/06/15 19:26:51;;;;;;;22.35;11.93;;;;;;;19.10;51.62;99163.73;4148541;84;21657;-78
2021/06/15 19:32:53;;;;;;;22.02;10.18;;;;;;;18.91;52.08;99185.31;4164556;84;21023;-78
2021/06/15 19:38:58;;;;;;;42.03;22.87;;;;;;;18.69;53.02;99181.38;4150415;84;21065;-77
2021/06/15 19:45:01;;;;;;;45.85;23.18;;;;;;;18.53;53.53;99182.05;4143136;82;21037;-78
2021/06/15 19:51:04;;;;;;;41.80;22.55;;;;;;;18.29;54.15;99182.46;4158341;83;21608;-78
2021/06/15 19:57:06;;;;;;;28.80;16.32;;;;;;;18.06;55.41;99187.38;4052450;81;9999709;-78
2021/06/15 20:03:08;;;;;;;30.52;14.60;;;;;;;17.83;55.80;99183.78;4164218;84;20998;-77
2021/06/15 20:09:10;;;;;;;35.20;13.62;;;;;;;17.68;56.26;99189.36;4158266;84;21703;-78
2021/06/15 20:15:14;;;;;;;26.37;13.08;;;;;;;17.67;57.34;99191.92;4167015;84;21059;-78
2021/06/15 20:21:16;;;;;;;18.12;9.53;;;;;;;17.45;57.32;99190.64;4167928;84;20998;-78
2021/06/15 20:27:18;;;;;;;26.90;12.98;;;;;;;17.21;58.11;99193.30;4170170;83;21036;-78
2021/06/15 20:33:20;;;;;;;17.95;9.75;;;;;;;17.12;58.13;99198.55;4170139;83;21042;-80
2021/06/15 20:39:22;;;;;;;23.45;11.55;;;;;;;16.94;59.04;99188.27;4168895;83;21007;-78
2021/06/15 20:45:23;;;;;;;21.33;10.55;;;;;;;16.80;59.36;99195.34;4167199;83;21019;-78
2021/06/15 20:51:25;;;;;;;25.60;10.88;;;;;;;16.62;60.04;99190.61;4174093;83;21423;-78
2021/06/15 20:57:26;;;;;;;21.85;10.65;;;;;;;16.39;60.75;99195.94;4176551;83;21022;-78
2021/06/15 21:03:28;;;;;;;22.93;11.45;;;;;;;16.30;61.17;99184.55;4169648;83;20988;-78
2021/06/15 21:09:29;;;;;;;20.08;9.60;;;;;;;16.14;61.54;99183.53;4160811;83;21506;-78
2021/06/15 21:15:31;;;;;;;19.95;9.85;;;;;;;16.03;62.36;99191.90;4166333;83;21723;-77
2021/06/15 21:21:33;;;;;;;20.40;10.00;;;;;;;15.98;63.09;99195.09;4164623;83;21068;-78
2021/06/15 21:27:35;;;;;;;16.60;9.63;;;;;;;15.88;63.66;99199.31;4169903;83;21580;-77
2021/06/15 21:33:38;;;;;;;18.07;9.05;;;;;;;15.80;64.09;99199.97;4184677;83;21511;-78
2021/06/15 21:39:39;;;;;;;21.70;9.13;;;;;;;15.89;64.43;99209.16;4183273;83;21585;-80
2021/06/15 21:45:42;;;;;;;18.37;10.20;;;;;;;15.96;64.54;99208.51;4178031;83;21099;-77
2021/06/15 21:51:43;;;;;;;14.75;8.00;;;;;;;15.87;64.52;99203.25;4178528;83;21055;-77
2021/06/15 21:57:45;;;;;;;12.37;8.93;;;;;;;15.77;65.03;99207.64;4178725;83;21106;-77
2021/06/15 22:03:46;;;;;;;16.05;9.03;;;;;;;15.45;65.33;99214.75;4177698;83;22200;-77
2021/06/15 22:09:48;;;;;;;19.40;10.28;;;;;;;15.35;65.94;99212.78;4179881;83;21558;-77
2021/06/15 22:15:49;;;;;;;13.32;9.10;;;;;;;15.05;66.12;99210.36;4181035;83;21107;-78
2021/06/15 22:21:51;;;;;;;16.37;9.23;;;;;;;14.95;66.95;99213.92;4178533;83;21081;-78
2021/06/15 22:27:54;;;;;;;17.17;9.85;;;;;;;15.07;67.03;99221.17;4176759;83;21089;-78
2021/06/15 22:33:56;;;;;;;13.85;9.35;;;;;;;14.87;67.15;99209.03;4152369;84;21003;-78
2021/06/15 22:39:57;;;;;;;19.75;10.08;;;;;;;14.57;67.67;99196.30;4151658;84;21046;-76
2021/06/15 22:45:59;;;;;;;16.00;9.70;;;;;;;14.41;67.96;99197.30;4151911;84;21053;-76
2021/06/15 22:52:00;;;;;;;17.90;9.63;;;;;;;14.27;68.43;99203.42;4152282;84;21034;-78
2021/06/15 22:58:01;;;;;;;13.70;9.23;;;;;;;14.23;68.87;99207.52;4152037;84;21547;-76
2021/06/15 23:04:03;;;;;;;16.20;9.20;;;;;;;14.15;69.20;99205.36;4147272;84;21382;-76
2021/06/15 23:10:09;;;;;;;14.93;9.28;;;;;;;14.19;69.64;99206.71;4150089;84;21046;-76
2021/06/15 23:16:10;;;;;;;15.10;9.83;;;;;;;14.01;69.75;99212.23;4146283;84;21104;-75
2021/06/15 23:22:11;;;;;;;16.87;10.88;;;;;;;13.88;70.07;99202.78;4144629;84;21135;-76
2021/06/15 23:28:15;;;;;;;17.00;10.40;;;;;;;13.73;70.21;99201.16;4151911;84;21072;-78
2021/06/15 23:34:18;;;;;;;15.08;9.50;;;;;;;13.65;70.55;99202.94;4150438;84;21071;-78
2021/06/15 23:40:22;;;;;;;17.57;9.25;;;;;;;13.60;71.17;99203.31;4152815;84;21062;-78
2021/06/15 23:46:24;;;;;;;15.28;10.35;;;;;;;13.75;71.23;99207.69;4149303;84;21070;-76
2021/06/15 23:52:25;;;;;;;18.07;9.48;;;;;;;13.69;71.49;99216.89;4152518;84;21054;-76
2021/06/15 23:58:26;;;;;;;13.13;9.25;;;;;;;13.47;71.26;99220.76;4146602;84;21009;-75
